Time;durP1;ratioP1;P1;durP2;ratioP2;P2;SDS_P1;SDS_P2;PMS_P1;PMS_P2;Temp;Humidity;BMP_temperature;BMP_pressure;BME280_temperature;BME280_humidity;BME280_pressure;Samples;Min_cycle;Max_cycle;Signal;HPM_P1;HPM_P2
2023/01/13 00:00:25;;;;;;;2.00;1.80;;;;;;;9.72;100.00;99910.91;6204995;23;20407;-75
2023/01/13 00:02:59;;;;;;;2.57;1.40;;;;;;;9.69;100.00;99912.16;6226790;23;20389;-74
2023/01/13 00:05:31;;;;;;;2.80;1.70;;;;;;;9.72;100.00;99913.63;6226956;23;20524;-74
2023/01/13 00:08:03;;;;;;;2.07;1.77;;;;;;;9.71;100.00;99912.78;6227470;23;20510;-75
2023/01/13 00:10:34;;;;;;;2.03;1.10;;;;;;;9.70;100.00;99921.94;6229789;23;20415;-74
2023/01/13 00:13:06;;;;;;;3.67;1.63;;;;;;;9.77;100.00;99906.50;6232933;23;20449;-73
2023/01/13 00:15:40;;;;;;;2.13;1.57;;;;;;;9.78;100.00;99924.34;6225222;23;20427;-74
2023/01/13 00:18:12;;;;;;;3.15;1.27;;;;;;;9.89;100.00;99917.41;6224788;23;20886;-75
2023/01/13 00:20:43;;;;;;;2.30;1.83;;;;;;;9.81;100.00;99918.53;6222628;23;20164;-74
2023/01/13 00:23:13;;;;;;;2.27;1.40;;;;;;;9.85;100.00;99914.31;6218786;23;20472;-75
2023/01/13 00:25:44;;;;;;;2.00;1.27;;;;;;;9.86;100.00;99915.16;6218767;23;20428;-75
2023/01/13 00:28:15;;;;;;;1.20;1.10;;;;;;;9.86;100.00;99915.97;6219916;23;20757;-75
2023/01/13 00:30:48;;;;;;;1.30;1.07;;;;;;;9.85;100.00;99906.22;6219045;23;20473;-75
2023/01/13 00:33:19;;;;;;;1.60;1.00;;;;;;;9.79;100.00;99912.50;6219234;23;20432;-74
2023/01/13 00:35:57;;;;;;;1.63;0.90;;;;;;;9.87;100.00;99912.25;6218213;23;20488;-75
2023/01/13 00:38:31;;;;;;;3.03;0.97;;;;;;;9.80;100.00;99914.16;6218728;23;20390;-74
2023/01/13 00:41:03;;;;;;;3.30;1.63;;;;;;;9.87;100.00;99906.84;6218609;23;20488;-75
2023/01/13 00:43:34;;;;;;;4.13;1.00;;;;;;;9.95;100.00;99913.81;6218983;23;20415;-75
2023/01/13 00:46:07;;;;;;;1.40;0.90;;;;;;;9.83;100.00;99908.31;6218844;23;20460;-75
2023/01/13 00:48:39;;;;;;;3.20;0.70;;;;;;;9.74;100.00;99904.22;6218875;23;20464;-74
2023/01/13 00:51:14;;;;;;;1.20;0.97;;;;;;;9.74;100.00;99904.22;6245498;23;20354;-75
2023/01/13 00:53:46;;;;;;;4.60;1.10;;;;;;;9.81;100.00;99907.72;6219382;23;20410;-75
2023/01/13 00:56:19;;;;;;;1.60;1.13;;;;;;;9.79;100.00;99907.09;6218571;23;20436;-74
2023/01/13 00:59:08;;;;;;;2.78;1.58;;;;;;;9.76;100.00;99906.72;6217083;23;20415;-76
2023/01/13 01:01:40;;;;;;;1.95;1.17;;;;;;;9.79;100.00;99903.56;6245074;23;20170;-74
2023/01/13 01:04:11;;;;;;;5.10;1.20;;;;;;;9.81;100.00;99905.00;6219383;23;20501;-75
2023/01/13 01:06:42;;;;;;;1.33;0.90;;;;;;;9.88;100.00;99908.47;6218166;23;20415;-76
2023/01/13 01:09:15;;;;;;;3.20;1.50;;;;;;;9.80;100.00;99906.06;6218317;23;20385;-75
2023/01/13 01:11:46;;;;;;;1.33;0.90;;;;;;;9.73;100.00;99916.06;6218880;22;20497;-75
2023/01/13 01:14:17;;;;;;;2.23;1.20;;;;;;;9.71;100.00;99912.78;6245361;23;20373;-75
2023/01/13 01:16:50;;;;;;;1.50;0.90;;;;;;;9.83;99.71;99911.00;6218479;23;20917;-75
2023/01/13 01:19:21;;;;;;;1.73;1.07;;;;;;;9.82;99.63;99912.06;6218540;23;20716;-74
2023/01/13 01:21:51;;;;;;;1.57;1.07;;;;;;;9.89;99.13;99910.13;6218864;23;20392;-75
2023/01/13 01:24:21;;;;;;;1.40;0.87;;;;;;;9.83;99.08;99911.00;6220002;23;20410;-76
2023/01/13 01:26:52;;;;;;;1.83;0.80;;;;;;;9.81;99.30;99907.72;6218313;23;20440;-74
2023/01/13 01:29:22;;;;;;;9.07;1.10;;;;;;;9.83;99.02;99918.28;6218073;23;20421;-75
2023/01/13 01:31:57;;;;;;;1.30;0.80;;;;;;;9.85;98.98;99908.09;6217888;23;20411;-75
2023/01/13 01:34:28;;;;;;;1.57;1.00;;;;;;;9.79;98.96;99904.38;6217550;23;20464;-75
2023/01/13 01:36:58;;;;;;;2.20;1.07;;;;;;;9.87;98.43;99909.53;6218085;23;20385;-73
2023/01/13 01:39:28;;;;;;;1.43;0.93;;;;;;;9.96;97.94;99910.06;6218283;23;20894;-74
2023/01/13 01:45:15;;;;;;;1.10;0.80;;;;;;;9.98;97.28;99902.56;6127214;23;20420;-75
2023/01/13 01:47:52;;;;;;;1.00;0.60;;;;;;;10.00;96.75;99904.00;6127521;23;20860;-74
2023/01/13 01:50:22;;;;;;;2.03;1.37;;;;;;;9.94;96.61;99902.19;6218598;23;20894;-75
2023/01/13 01:52:58;;;;;;;2.53;1.53;;;;;;;10.01;96.27;99902.97;6245210;23;20395;-74
2023/01/13 01:55:32;;;;;;;3.17;1.70;;;;;;;10.03;96.23;99902.72;6218598;23;20481;-74
2023/01/13 01:58:06;;;;;;;1.47;0.97;;;;;;;9.97;96.65;99892.81;6218472;23;20719;-77
2023/01/13 02:00:38;;;;;;;2.13;1.43;;;;;;;9.94;96.13;99895.94;6218236;23;20397;-75
2023/01/13 02:03:11;;;;;;;1.80;1.20;;;;;;;10.02;96.19;99891.06;6246319;23;20711;-75
2023/01/13 02:05:42;;;;;;;3.63;0.90;;;;;;;10.02;95.16;99896.47;6221969;23;20423;-74
2023/01/13 02:08:15;;;;;;;2.27;1.07;;;;;;;10.05;94.99;99887.13;6198090;23;20409;-75
2023/01/13 02:10:51;;;;;;;4.13;1.00;;;;;;;10.04;95.00;99890.88;6222151;23;20876;-74
2023/01/13 02:13:23;;;;;;;2.40;1.00;;;;;;;9.96;95.38;99900.09;6219952;23;20422;-75
2023/01/13 02:15:59;;;;;;;1.60;0.90;;;;;;;9.94;95.26;99885.97;6229114;23;20430;-75
2023/01/13 02:18:45;;;;;;;1.83;0.80;;;;;;;9.94;95.35;99885.97;6221895;23;20460;-75
2023/01/13 02:21:47;;;;;;;1.70;1.20;;;;;;;10.04;94.51;99886.28;6219499;23;20887;-74
2023/01/13 02:27:51;;;;;;;1.30;0.80;;;;;;;9.97;94.52;99882.00;6219206;23;20745;-76
2023/01/13 02:33:47;;;;;;;1.33;0.80;;;;;;;9.87;94.93;99878.97;6197292;23;20474;-74
2023/01/13 02:36:28;;;;;;;1.47;0.90;;;;;;;9.94;94.52;99875.16;6227360;23;20496;-75
2023/01/13 02:39:04;;;;;;;1.10;0.97;;;;;;;9.89;94.91;99880.41;6245153;23;20369;-75
2023/01/13 02:44:36;;;;;;;7.90;1.43;;;;;;;10.01;94.54;99875.09;6219855;23;20409;-74
2023/01/13 02:47:14;;;;;;;2.30;0.80;;;;;;;9.93;94.26;99869.97;6219247;23;20434;-75
2023/01/13 02:49:49;;;;;;;1.10;0.80;;;;;;;9.91;94.27;99864.81;6219994;23;20405;-73
2023/01/13 02:52:27;;;;;;;3.13;0.90;;;;;;;9.92;94.42;99871.84;6220283;23;20414;-75
2023/01/13 02:55:06;;;;;;;0.90;0.60;;;;;;;10.02;93.22;99874.84;6220384;23;20409;-75
2023/01/13 02:57:40;;;;;;;0.93;0.60;;;;;;;9.88;94.09;99865.22;6220667;23;20383;-74
2023/01/13 03:00:13;;;;;;;1.47;0.97;;;;;;;9.89;94.05;99864.19;6219689;23;20463;-74
2023/01/13 03:02:46;;;;;;;1.00;0.80;;;;;;;9.92;93.89;99863.72;6219763;23;20408;-73
2023/01/13 03:05:17;;;;;;;1.37;1.00;;;;;;;9.85;94.26;99864.84;6219728;23;20953;-73
2023/01/13 03:08:04;;;;;;;6.53;0.90;;;;;;;9.86;93.50;99861.13;6218830;23;20418;-76
2023/01/13 03:10:53;;;;;;;1.70;0.83;;;;;;;9.88;93.49;99865.22;6246732;23;20381;-75
2023/01/13 03:13:48;;;;;;;1.30;0.73;;;;;;;9.88;93.37;99843.63;6220764;23;20431;-73
2023/01/13 03:16:28;;;;;;;2.40;0.83;;;;;;;9.90;93.27;99841.53;6222412;23;20502;-76
2023/01/13 03:19:16;;;;;;;1.73;0.83;;;;;;;9.98;93.02;99838.53;6250708;23;20371;-75
2023/01/13 03:21:55;;;;;;;1.30;0.83;;;;;;;9.96;92.44;99837.94;6224060;23;20532;-75
2023/01/13 03:24:34;;;;;;;1.17;0.97;;;;;;;9.99;92.11;99850.16;6225220;23;20393;-76
2023/01/13 03:27:12;;;;;;;1.33;0.60;;;;;;;9.95;92.30;99849.78;6223529;23;20405;-77
2023/01/13 03:29:48;;;;;;;2.30;0.70;;;;;;;9.91;92.49;99851.28;6230181;23;20403;-75
2023/01/13 03:32:24;;;;;;;1.10;0.63;;;;;;;9.99;91.47;99851.00;6263661;23;20375;-74
2023/01/13 03:35:00;;;;;;;1.50;0.97;;;;;;;9.95;91.78;99848.97;6258247;23;20429;-74
2023/01/13 03:37:36;;;;;;;1.50;0.60;;;;;;;9.85;91.97;99837.84;6231198;23;20377;-75
2023/01/13 03:40:14;;;;;;;1.00;0.67;;;;;;;9.93;91.94;99845.66;6231751;23;20388;-74
2023/01/13 03:45:35;;;;;;;1.10;0.70;;;;;;;9.85;92.25;99849.47;6230004;23;20435;-74
2023/01/13 03:48:14;;;;;;;1.60;0.70;;;;;;;9.75;92.62;99841.03;6231803;23;20457;-74
2023/01/13 03:50:53;;;;;;;1.00;0.50;;;;;;;9.88;92.42;99843.63;6226465;23;20468;-75
2023/01/13 03:53:28;;;;;;;1.33;0.70;;;;;;;9.90;91.57;99843.41;6221390;23;20886;-75
2023/01/13 03:56:03;;;;;;;1.00;0.53;;;;;;;9.86;92.22;99853.84;6220737;23;20803;-75
2023/01/13 03:58:40;;;;;;;1.00;0.60;;;;;;;9.84;92.22;99842.41;6218822;23;20418;-74
2023/01/13 04:01:17;;;;;;;1.13;0.60;;;;;;;9.83;92.00;99843.44;6194648;23;20447;-76
2023/01/13 04:03:54;;;;;;;1.03;0.70;;;;;;;9.80;92.49;99837.69;6245649;23;20395;-73
2023/01/13 04:06:36;;;;;;;1.30;0.70;;;;;;;9.83;92.06;99848.03;6218595;23;20485;-74
2023/01/13 04:09:15;;;;;;;1.17;0.63;;;;;;;9.87;91.60;99844.69;6219155;23;20872;-75
2023/01/13 04:11:52;;;;;;;0.90;0.60;;;;;;;9.84;91.78;99828.06;6219193;23;20420;-75
2023/01/13 04:14:27;;;;;;;1.83;1.03;;;;;;;9.87;91.40;99831.19;6219184;23;20416;-76
2023/01/13 04:17:00;;;;;;;0.90;0.53;;;;;;;9.83;92.07;99835.34;6218821;23;20877;-75
2023/01/13 04:19:32;;;;;;;2.33;0.80;;;;;;;9.75;92.16;99838.34;6219293;23;20795;-73
2023/01/13 04:22:03;;;;;;;1.77;0.77;;;;;;;9.70;92.13;99838.19;6218791;23;20415;-74
2023/01/13 04:24:36;;;;;;;1.00;0.60;;;;;;;9.64;92.54;99832.81;6218770;23;20415;-74
2023/01/13 04:27:06;;;;;;;4.20;0.90;;;;;;;9.53;93.29;99834.41;6218541;23;20417;-75
2023/01/13 04:29:36;;;;;;;0.90;0.60;;;;;;;9.53;93.60;99842.50;6218531;23;20389;-74
2023/01/13 04:32:06;;;;;;;0.90;0.60;;;;;;;9.47;93.91;99846.09;6218522;23;20413;-74
2023/01/13 04:34:36;;;;;;;2.90;0.90;;;;;;;9.48;93.68;99842.34;6218734;23;20435;-75
2023/01/13 04:37:08;;;;;;;1.20;0.73;;;;;;;9.38;94.58;99847.41;6218666;23;20473;-74
2023/01/13 04:39:39;;;;;;;1.75;0.77;;;;;;;9.31;95.12;99843.91;6245770;23;20387;-74
2023/01/13 04:42:10;;;;;;;1.50;0.70;;;;;;;9.38;94.51;99833.91;6217205;23;20172;-74
2023/01/13 04:44:41;;;;;;;1.67;0.60;;;;;;;9.40;94.30;99838.03;6220246;23;20409;-74
2023/01/13 04:47:12;;;;;;;2.47;0.93;;;;;;;9.29;94.93;99843.31;6219434;23;20748;-74
2023/01/13 04:49:42;;;;;;;1.17;0.70;;;;;;;9.30;95.16;99844.94;6220441;23;20411;-73
2023/01/13 04:52:15;;;;;;;2.83;0.80;;;;;;;9.28;95.22;99844.38;6222082;23;20465;-75
2023/01/13 04:54:45;;;;;;;1.33;0.70;;;;;;;9.20;95.82;99850.84;6221906;23;20425;-73
2023/01/13 04:57:19;;;;;;;2.27;0.90;;;;;;;9.15;96.18;99848.78;6220536;23;20381;-74
2023/01/13 04:59:49;;;;;;;1.63;0.80;;;;;;;9.21;96.32;99844.41;6220828;23;20406;-75
2023/01/13 05:02:23;;;;;;;1.67;0.70;;;;;;;9.31;95.85;99846.63;6219102;23;20956;-74
2023/01/13 05:04:53;;;;;;;1.00;0.70;;;;;;;9.41;94.80;99852.34;6219046;23;20858;-74
2023/01/13 05:07:25;;;;;;;1.45;0.77;;;;;;;9.53;94.28;99858.72;6218549;23;20521;-73
2023/01/13 05:09:57;;;;;;;1.20;0.88;;;;;;;9.52;94.06;99870.56;6218675;23;20172;-73
2023/01/13 05:18:07;;;;;;;1.10;0.50;;;;;;;9.66;93.39;99877.50;6245258;23;20368;-73
2023/01/13 05:20:38;;;;;;;1.93;0.90;;;;;;;9.73;93.14;99874.75;6218791;23;20714;-73
2023/01/13 05:25:58;;;;;;;1.07;0.60;;;;;;;9.97;91.90;99896.31;6245198;23;20404;-74
2023/01/13 05:28:33;;;;;;;1.10;0.70;;;;;;;9.97;93.44;99890.13;6218203;23;20519;-75
2023/01/13 05:31:04;;;;;;;1.73;0.60;;;;;;;9.97;94.34;99895.53;6217966;23;20387;-75
2023/01/13 05:33:34;;;;;;;2.03;0.70;;;;;;;9.96;95.25;99896.56;6218155;23;20428;-75
2023/01/13 05:36:05;;;;;;;1.10;0.70;;;;;;;9.90;95.12;99906.38;6218303;23;20893;-74
2023/01/13 05:38:37;;;;;;;0.90;0.60;;;;;;;9.87;95.82;99909.53;6245474;23;20661;-74
2023/01/13 05:43:56;;;;;;;1.10;0.70;;;;;;;9.80;97.89;99910.63;6217684;23;20439;-75
2023/01/13 05:46:27;;;;;;;1.57;0.70;;;;;;;9.79;99.68;99914.38;6217754;23;20436;-72
2023/01/13 05:48:58;;;;;;;2.80;0.90;;;;;;;9.72;100.00;99913.63;6217989;23;20382;-73
2023/01/13 05:51:28;;;;;;;0.80;0.50;;;;;;;9.64;100.00;99912.00;6218176;23;20410;-74
2023/01/13 05:54:00;;;;;;;1.13;0.60;;;;;;;9.58;100.00;99919.09;6218177;23;20715;-73
2023/01/13 05:56:30;;;;;;;1.30;0.60;;;;;;;9.47;100.00;99919.00;6217802;23;20472;-73
2023/01/13 05:59:00;;;;;;;0.97;0.70;;;;;;;9.60;100.00;99937.78;6218046;23;20422;-74
2023/01/13 06:01:30;;;;;;;1.00;0.77;;;;;;;9.40;100.00;99929.00;6217561;23;20802;-75
2023/01/13 06:04:00;;;;;;;2.20;0.90;;;;;;;9.54;100.00;99941.34;6217667;23;20385;-73
2023/01/13 06:06:31;;;;;;;1.00;0.70;;;;;;;9.46;100.00;99933.53;6217070;23;20419;-73
2023/01/13 06:09:02;;;;;;;1.57;0.80;;;;;;;9.36;100.00;99919.69;6217500;23;20180;-74
2023/01/13 06:11:32;;;;;;;1.20;0.83;;;;;;;9.49;100.00;99924.97;6217339;22;20464;-74
2023/01/13 06:14:06;;;;;;;4.43;1.27;;;;;;;9.25;100.00;99909.56;6217408;23;20710;-73
2023/01/13 06:16:36;;;;;;;4.50;1.30;;;;;;;9.37;100.00;99913.25;6219553;23;20793;-74
2023/01/13 06:19:08;;;;;;;1.63;0.90;;;;;;;9.25;100.00;99917.66;6222832;23;20415;-72
2023/01/13 06:21:41;;;;;;;1.80;1.20;;;;;;;9.19;100.00;99922.09;6250881;23;20413;-73
2023/01/13 06:24:12;;;;;;;3.30;1.27;;;;;;;9.14;100.00;99913.81;6223180;23;20410;-73
2023/01/13 06:26:43;;;;;;;3.47;1.23;;;;;;;9.16;100.00;99919.81;6252787;23;20349;-73
2023/01/13 06:29:17;;;;;;;2.17;1.00;;;;;;;9.13;100.00;99917.53;6234174;23;20462;-72
2023/01/13 06:31:47;;;;;;;3.03;1.60;;;;;;;8.98;100.00;99917.00;6234728;23;20381;-73
2023/01/13 06:34:18;;;;;;;2.93;1.37;;;;;;;8.81;100.00;99911.25;6224849;23;20415;-73
2023/01/13 06:36:52;;;;;;;3.27;2.10;;;;;;;8.86;100.00;99911.44;6219777;23;20381;-73
2023/01/13 06:39:29;;;;;;;2.40;1.33;;;;;;;8.80;100.00;99917.72;6219669;23;20376;-74
2023/01/13 06:44:47;;;;;;;2.83;1.60;;;;;;;8.92;100.00;99910.59;6219432;23;20433;-75
2023/01/13 06:47:17;;;;;;;3.03;1.53;;;;;;;8.92;100.00;99907.06;6246494;23;20882;-77
2023/01/13 06:49:47;;;;;;;3.77;2.13;;;;;;;8.99;100.00;99903.31;6220072;23;20419;-74
2023/01/13 06:52:17;;;;;;;1.80;1.20;;;;;;;9.05;100.00;99890.81;6223710;23;20392;-74
2023/01/13 06:54:49;;;;;;;2.10;1.60;;;;;;;9.08;100.00;99866.09;6221597;23;20439;-73
2023/01/13 06:57:19;;;;;;;2.50;1.50;;;;;;;9.12;100.00;99873.53;6220379;23;20436;-75
2023/01/13 06:59:48;;;;;;;2.70;2.10;;;;;;;9.22;100.00;99886.53;6247400;23;20837;-74
2023/01/13 07:02:22;;;;;;;2.10;1.90;;;;;;;9.38;100.00;99893.31;6219687;23;20403;-73
2023/01/13 07:04:52;;;;;;;1.83;1.63;;;;;;;9.34;100.00;99890.22;6218880;23;20409;-76
2023/01/13 07:07:28;;;;;;;5.93;2.70;;;;;;;9.41;100.00;99903.66;6245834;23;20357;-74
2023/01/13 07:10:00;;;;;;;2.37;1.90;;;;;;;9.54;100.00;99900.84;6219277;23;20391;-72
2023/01/13 07:15:16;;;;;;;1.73;1.30;;;;;;;9.53;100.00;99915.44;6219105;23;20809;-73
2023/01/13 07:15:19;;;;;;;4.13;3.13;;;;;;;9.39;100.00;99908.47;6218998;23;20985;-73
2023/01/13 07:17:50;;;;;;;1.83;1.17;;;;;;;9.42;100.00;99894.50;6219003;23;20936;-74
2023/01/13 07:20:51;;;;;;;2.23;0.97;;;;;;;9.50;100.00;99883.44;6219535;23;20381;-76
2023/01/13 07:23:22;;;;;;;3.90;1.03;;;;;;;9.62;100.00;99883.56;6226234;23;20712;-74
2023/01/13 07:25:54;;;;;;;1.53;0.93;;;;;;;9.54;100.00;99873.84;6218218;23;20425;-73
2023/01/13 07:28:25;;;;;;;1.73;0.90;;;;;;;9.49;100.00;99854.78;6219179;23;20432;-73
2023/01/13 07:30:55;;;;;;;1.83;0.80;;;;;;;9.52;100.00;99870.56;6219662;23;20405;-75
2023/01/13 07:33:27;;;;;;;1.40;0.87;;;;;;;9.79;99.85;99909.78;6194046;23;20415;-73
2023/01/13 07:35:58;;;;;;;4.87;1.83;;;;;;;9.66;98.39;99892.88;6219099;23;20463;-75
2023/01/13 07:38:29;;;;;;;2.70;1.60;;;;;;;9.67;98.14;99883.72;6219168;23;20743;-74
2023/01/13 07:43:30;;;;;;;3.43;2.63;;;;;;;9.56;99.39;99896.91;6219417;23;20386;-73
2023/01/13 07:43:52;;;;;;;2.10;1.70;;;;;;;9.53;99.23;99893.81;6246397;23;20664;-73
2023/01/13 07:46:22;;;;;;;3.93;2.03;;;;;;;9.49;98.32;99893.41;6218836;23;20489;-75
2023/01/13 07:48:52;;;;;;;3.30;2.33;;;;;;;9.58;97.18;99902.09;6218961;23;20484;-73
2023/01/13 07:51:25;;;;;;;3.20;2.10;;;;;;;9.67;96.36;99913.44;6245721;23;20366;-76
2023/01/13 07:53:55;;;;;;;7.17;2.13;;;;;;;9.73;96.58;99913.38;6219515;23;20480;-75
2023/01/13 07:56:27;;;;;;;5.77;3.40;;;;;;;9.73;96.12;99913.38;6218964;23;20404;-75
2023/01/13 07:58:58;;;;;;;3.90;2.40;;;;;;;9.66;96.16;99909.09;6219473;23;20480;-76
2023/01/13 08:01:30;;;;;;;3.67;1.70;;;;;;;9.60;94.94;99910.78;6219155;23;20755;-75
2023/01/13 08:04:00;;;;;;;3.43;2.27;;;;;;;9.65;95.02;99908.25;6218710;23;20427;-74
2023/01/13 08:06:30;;;;;;;2.37;2.00;;;;;;;9.66;94.22;99903.69;6219380;23;20413;-73
2023/01/13 08:09:00;;;;;;;4.70;1.87;;;;;;;9.65;93.51;99929.03;6221627;23;20533;-75
2023/01/13 08:11:32;;;;;;;4.10;1.57;;;;;;;9.83;92.99;99937.19;6218410;23;20385;-75
2023/01/13 08:14:01;;;;;;;2.47;1.20;;;;;;;9.81;92.76;99942.00;6218818;23;20428;-73
2023/01/13 08:16:34;;;;;;;4.03;1.73;;;;;;;9.92;91.54;99936.69;6218273;23;20764;-74
2023/01/13 08:19:05;;;;;;;1.53;1.40;;;;;;;9.93;91.03;99942.94;6218849;23;20377;-75
2023/01/13 08:21:34;;;;;;;1.83;1.30;;;;;;;9.90;91.72;99946.09;6218512;23;20388;-74
2023/01/13 08:24:05;;;;;;;1.80;1.10;;;;;;;10.06;89.75;99955.53;6218314;23;20435;-73
2023/01/13 08:26:36;;;;;;;2.80;0.97;;;;;;;10.04;88.29;99956.56;6219314;23;20748;-74
2023/01/13 08:29:07;;;;;;;1.33;0.83;;;;;;;10.13;88.57;99953.56;6246819;23;20418;-73
2023/01/13 08:31:37;;;;;;;2.53;1.57;;;;;;;10.06;88.02;99942.84;6218518;23;20393;-74
2023/01/13 08:34:08;;;;;;;3.20;2.20;;;;;;;10.04;87.52;99934.09;6218197;23;20486;-74
2023/01/13 08:36:41;;;;;;;1.33;1.23;;;;;;;9.95;87.63;99938.97;6217738;23;20406;-74
2023/01/13 08:39:11;;;;;;;1.63;1.00;;;;;;;9.97;87.86;99953.06;6217748;23;20858;-73
2023/01/13 08:41:57;;;;;;;1.30;0.73;;;;;;;9.81;88.35;99950.94;6218316;23;20381;-73
2023/01/13 08:44:29;;;;;;;1.83;1.17;;;;;;;9.81;88.79;99952.81;6192851;23;20389;-72
2023/01/13 08:47:01;;;;;;;1.10;0.80;;;;;;;9.74;88.74;99950.16;6217747;23;20414;-74
2023/01/13 08:49:37;;;;;;;2.17;1.73;;;;;;;9.69;89.14;99928.38;6218195;23;20409;-75
2023/01/13 08:52:06;;;;;;;1.40;0.80;;;;;;;9.79;89.04;99958.44;6218141;23;20374;-74
2023/01/13 08:54:37;;;;;;;1.63;0.83;;;;;;;9.71;88.98;99964.09;6218070;23;20413;-73
2023/01/13 08:57:08;;;;;;;1.90;1.07;;;;;;;9.71;89.45;99987.59;6217942;23;20406;-75
2023/01/13 08:59:38;;;;;;;2.60;1.63;;;;;;;9.75;89.39;99986.94;6244577;23;20621;-73
2023/01/13 09:02:13;;;;;;;1.70;1.00;;;;;;;9.64;88.29;99982.22;6244797;23;20394;-73
2023/01/13 09:04:44;;;;;;;2.80;1.00;;;;;;;9.80;88.19;99989.81;6218025;23;20439;-74
2023/01/13 09:07:13;;;;;;;2.13;1.10;;;;;;;9.72;88.78;99970.34;6217240;23;20947;-74
2023/01/13 09:09:43;;;;;;;3.17;1.00;;;;;;;9.70;87.88;99932.72;6217396;23;20510;-73
2023/01/13 09:15:05;;;;;;;2.00;0.70;;;;;;;9.63;86.96;99929.28;6217940;23;20456;-74
2023/01/13 09:17:34;;;;;;;1.43;1.00;;;;;;;9.50;88.09;99829.44;6217758;23;20385;-73
2023/01/13 09:20:05;;;;;;;1.90;1.00;;;;;;;9.73;88.02;99886.34;6218174;23;20431;-72
2023/01/13 09:22:36;;;;;;;4.37;1.23;;;;;;;9.82;87.09;99963.41;6218024;23;20425;-72
2023/01/13 09:25:06;;;;;;;2.63;0.93;;;;;;;9.73;86.70;99967.41;6218528;23;20434;-74
2023/01/13 09:27:37;;;;;;;5.03;1.00;;;;;;;9.70;86.66;99959.75;6218347;23;20405;-74
2023/01/13 09:30:08;;;;;;;6.70;3.03;;;;;;;9.70;85.89;99965.16;6218435;23;20435;-73
2023/01/13 09:32:38;;;;;;;4.10;1.33;;;;;;;9.69;85.03;99963.50;6218137;23;20397;-72
2023/01/13 09:35:08;;;;;;;5.17;2.27;;;;;;;9.92;84.87;99969.13;6217878;23;20466;-73
2023/01/13 09:37:42;;;;;;;5.40;1.23;;;;;;;9.97;84.10;99954.97;6218190;23;20377;-74
2023/01/13 09:40:18;;;;;;;5.13;1.40;;;;;;;9.98;83.69;99960.16;6220861;23;20401;-74
2023/01/13 09:45:51;;;;;;;2.87;1.47;;;;;;;10.15;82.15;99946.06;6224110;23;20498;-72
2023/01/13 09:48:28;;;;;;;3.33;1.47;;;;;;;9.97;82.22;99933.34;6223672;23;20540;-73
2023/01/13 09:51:08;;;;;;;2.00;1.20;;;;;;;9.70;82.38;99932.72;6218329;23;20391;-74
2023/01/13 09:53:44;;;;;;;4.47;1.60;;;;;;;9.64;83.71;99944.41;6245122;23;20425;-73
2023/01/13 09:56:13;;;;;;;2.90;1.40;;;;;;;9.59;84.53;99957.75;6217883;23;20498;-73
2023/01/13 09:58:47;;;;;;;7.27;2.63;;;;;;;9.55;84.81;99965.47;6244626;23;20350;-73
2023/01/13 10:01:25;;;;;;;5.40;2.10;;;;;;;9.48;86.26;99966.56;6245106;23;20359;-72
2023/01/13 10:03:55;;;;;;;5.70;2.03;;;;;;;9.65;86.23;99959.56;6218365;23;20414;-74
2023/01/13 10:06:34;;;;;;;5.83;1.87;;;;;;;9.81;85.46;99958.22;6217910;23;20409;-73
2023/01/13 10:09:03;;;;;;;3.53;1.30;;;;;;;9.78;84.93;99967.56;6218648;23;20922;-73
2023/01/13 10:14:34;;;;;;;11.83;1.50;;;;;;;9.81;84.71;99980.66;6217601;23;20439;-73
2023/01/13 10:17:12;;;;;;;1.40;0.93;;;;;;;9.88;83.96;99973.31;6244538;23;20346;-74
2023/01/13 10:19:50;;;;;;;1.90;1.30;;;;;;;9.77;84.01;99976.75;6217547;23;20513;-75
2023/01/13 10:22:42;;;;;;;4.70;1.20;;;;;;;9.81;83.23;99975.25;6218756;23;20512;-74
2023/01/13 10:25:27;;;;;;;2.27;0.90;;;;;;;9.71;81.81;99966.81;6218594;23;20869;-72
2023/01/13 10:28:03;;;;;;;2.30;0.90;;;;;;;9.81;81.88;99969.84;6244723;23;20342;-74
2023/01/13 10:30:38;;;;;;;2.70;1.00;;;;;;;9.75;81.06;99972.59;6218255;23;20401;-75
2023/01/13 10:33:13;;;;;;;2.37;0.93;;;;;;;9.55;81.05;99970.03;6218968;23;20381;-73
2023/01/13 10:35:56;;;;;;;3.60;1.57;;;;;;;9.55;81.41;99964.63;6218530;23;20431;-74
2023/01/13 10:38:28;;;;;;;3.00;0.90;;;;;;;9.67;81.41;99975.56;6219207;23;20389;-74
2023/01/13 10:40:59;;;;;;;1.52;1.05;;;;;;;9.72;80.24;99976.56;6222602;23;20378;-74
2023/01/13 10:43:30;;;;;;;1.55;1.05;;;;;;;9.83;79.37;99970.44;6221810;23;20172;-73
2023/01/13 10:46:04;;;;;;;2.10;1.40;;;;;;;9.94;79.46;99967.03;6221611;23;20188;-74
2023/01/13 10:48:37;;;;;;;3.27;0.80;;;;;;;10.04;77.59;99956.56;6220645;23;20390;-74
2023/01/13 10:51:25;;;;;;;2.60;0.90;;;;;;;10.06;77.22;99974.44;6219768;23;20433;-74
2023/01/13 10:53:58;;;;;;;2.90;1.10;;;;;;;10.04;76.91;99967.38;6224508;23;20413;-74
2023/01/13 10:56:30;;;;;;;1.87;1.37;;;;;;;9.89;77.15;99976.84;6227185;23;20504;-73
2023/01/13 10:59:22;;;;;;;2.20;1.40;;;;;;;9.90;77.33;99971.25;6226636;23;20407;-74
2023/01/13 11:02:00;;;;;;;1.43;1.10;;;;;;;9.96;77.00;99961.44;6225379;23;20374;-73
2023/01/13 11:04:36;;;;;;;2.73;1.40;;;;;;;10.19;76.09;99963.53;6225311;23;20373;-73
2023/01/13 11:07:18;;;;;;;2.40;1.43;;;;;;;10.38;76.25;99957.09;6225791;23;20390;-74
2023/01/13 11:10:18;;;;;;;2.23;1.07;;;;;;;10.24;75.48;99969.09;6252996;23;20727;-74
2023/01/13 11:12:58;;;;;;;4.20;1.30;;;;;;;10.14;75.45;99963.34;6223216;23;20393;-72
2023/01/13 11:15:39;;;;;;;2.43;1.50;;;;;;;10.23;75.50;99968.28;6220263;23;20462;-73
2023/01/13 11:18:19;;;;;;;2.87;2.03;;;;;;;10.52;74.35;99964.03;6220330;23;20388;-75
2023/01/13 11:20:51;;;;;;;2.37;1.13;;;;;;;10.45;73.92;99974.13;6220406;23;20410;-71
2023/01/13 11:23:28;;;;;;;2.50;1.40;;;;;;;10.59;73.09;99970.22;6220511;23;20875;-72
2023/01/13 11:26:04;;;;;;;1.90;1.27;;;;;;;10.56;73.25;99970.66;6219324;23;20409;-74
2023/01/13 11:28:44;;;;;;;4.17;1.90;;;;;;;10.42;72.44;99963.72;6220181;23;20713;-74
2023/01/13 11:31:23;;;;;;;3.47;1.40;;;;;;;10.40;71.92;99968.53;6220028;23;20409;-73
2023/01/13 11:34:05;;;;;;;2.90;1.30;;;;;;;10.51;71.90;99964.25;6220198;23;20420;-72
2023/01/13 11:36:44;;;;;;;1.77;1.10;;;;;;;10.45;71.10;99963.28;6219379;23;20423;-71
2023/01/13 11:39:24;;;;;;;3.20;1.40;;;;;;;10.36;71.23;99962.72;6195044;23;20393;-73
2023/01/13 11:44:52;;;;;;;3.33;1.70;;;;;;;10.52;71.14;99961.31;6206260;23;20413;-73
2023/01/13 11:47:24;;;;;;;4.10;1.00;;;;;;;10.53;69.35;99959.44;6221085;23;20381;-74
2023/01/13 11:49:56;;;;;;;4.13;1.40;;;;;;;10.68;68.76;99970.75;6221325;23;20401;-73
2023/01/13 11:52:46;;;;;;;2.83;1.50;;;;;;;10.67;67.75;99969.91;6221214;23;20484;-74
2023/01/13 11:55:27;;;;;;;3.60;1.83;;;;;;;10.54;68.12;99967.34;6220737;23;20492;-73
2023/01/13 11:58:12;;;;;;;3.93;1.37;;;;;;;10.49;68.17;99963.66;6221122;23;20490;-74
2023/01/13 12:01:09;;;;;;;6.30;1.40;;;;;;;10.59;66.76;99956.69;6220020;23;20399;-73
2023/01/13 12:03:44;;;;;;;5.33;2.07;;;;;;;10.64;66.72;99967.66;6219853;23;20415;-74
2023/01/13 12:06:25;;;;;;;1.57;1.00;;;;;;;10.67;66.29;99971.78;6219738;23;20421;-74
2023/01/13 12:09:27;;;;;;;4.03;1.10;;;;;;;10.63;65.23;99966.00;6219797;23;20870;-74
2023/01/13 12:12:26;;;;;;;2.00;1.00;;;;;;;10.54;66.13;99967.34;6219704;23;20449;-73
2023/01/13 12:15:29;;;;;;;2.60;1.10;;;;;;;10.53;65.30;99965.69;6219717;23;20475;-72
2023/01/13 12:18:25;;;;;;;7.63;1.50;;;;;;;10.53;64.44;99959.44;6220565;23;20860;-74
2023/01/13 12:21:29;;;;;;;2.50;1.03;;;;;;;10.62;64.33;99958.94;6225020;23;20858;-74
2023/01/13 12:24:13;;;;;;;2.97;2.03;;;;;;;10.73;64.07;99966.31;6219851;23;20480;-74
2023/01/13 12:26:49;;;;;;;4.70;1.50;;;;;;;10.73;63.48;99950.06;6219227;23;20411;-74
2023/01/13 12:29:31;;;;;;;2.70;1.03;;;;;;;10.68;63.72;99963.44;6219501;23;20410;-72
2023/01/13 12:32:08;;;;;;;2.50;1.10;;;;;;;10.77;63.19;99966.69;6219398;23;20409;-74
2023/01/13 12:35:02;;;;;;;4.50;1.10;;;;;;;10.70;61.89;99968.63;6219222;23;20435;-74
2023/01/13 12:37:44;;;;;;;2.40;1.43;;;;;;;10.54;60.85;99967.34;6219111;23;20443;-73
2023/01/13 12:40:27;;;;;;;2.90;2.20;;;;;;;10.54;62.05;99983.59;6219448;23;20416;-74
2023/01/13 12:46:35;;;;;;;2.90;1.73;;;;;;;10.69;62.38;99978.63;6219065;23;20415;-72
2023/01/13 12:49:18;;;;;;;6.73;1.13;;;;;;;10.77;61.08;99972.09;6219160;23;20442;-73
2023/01/13 12:52:17;;;;;;;2.87;1.13;;;;;;;10.60;58.40;99966.44;6218963;23;20410;-73
2023/01/13 12:55:16;;;;;;;4.10;1.10;;;;;;;10.77;59.30;99978.31;6178923;23;20488;-72
2023/01/13 12:58:17;;;;;;;3.77;0.90;;;;;;;10.97;58.25;99977.28;6219067;23;20381;-74
2023/01/13 13:01:17;;;;;;;2.70;0.90;;;;;;;10.81;58.66;99984.09;6246135;23;20436;-73